Time;durP1;ratioP1;P1;durP2;ratioP2;P2;SDS_P1;SDS_P2;PMS_P1;PMS_P2;Temp;Humidity;BMP_temperature;BMP_pressure;BME280_temperature;BME280_humidity;BME280_pressure;Samples;Min_cycle;Max_cycle;Signal;HPM_P1;HPM_P2
2022/06/29 00:00:58;;;;;;;2.13;1.40;;;19.40;88.20;;;;;;2073779;28;20033;-67
2022/06/29 00:01:59;;;;;;;1.65;1.50;;;19.40;88.70;;;;;;2073178;28;20018;-67
2022/06/29 00:03:00;;;;;;;1.90;1.02;;;19.40;89.30;;;;;;2076073;28;20013;-68
2022/06/29 00:04:01;;;;;;;2.70;1.40;;;19.40;89.70;;;;;;2072521;28;20100;-68
2022/06/29 00:05:03;;;;;;;3.47;1.30;;;19.40;89.80;;;;;;2076863;28;20022;-68
2022/06/29 00:06:04;;;;;;;2.90;1.60;;;19.40;90.20;;;;;;2077681;28;20078;-68
2022/06/29 00:07:04;;;;;;;2.28;1.35;;;19.40;90.10;;;;;;2077449;28;20013;-68
2022/06/29 00:08:05;;;;;;;3.40;1.42;;;19.40;90.30;;;;;;2077815;28;20018;-68
2022/06/29 00:09:05;;;;;;;3.80;1.42;;;19.30;90.30;;;;;;2077695;28;20370;-68
2022/06/29 00:10:07;;;;;;;5.70;1.48;;;19.40;90.30;;;;;;2078831;28;20033;-68
2022/06/29 00:11:08;;;;;;;5.60;1.20;;;19.40;90.40;;;;;;2076929;28;20022;-67
2022/06/29 00:12:08;;;;;;;1.85;1.27;;;19.40;90.30;;;;;;2077295;28;20033;-67
2022/06/29 00:13:09;;;;;;;3.67;1.17;;;19.30;90.30;;;;;;2078948;28;20381;-67
2022/06/29 00:14:10;;;;;;;2.08;1.05;;;19.40;90.50;;;;;;2077240;28;20036;-68
2022/06/29 00:15:11;;;;;;;2.28;1.20;;;19.30;90.70;;;;;;2077251;28;20029;-68
2022/06/29 00:16:12;;;;;;;1.23;1.05;;;19.30;90.90;;;;;;2076078;28;20022;-68
2022/06/29 00:17:13;;;;;;;2.67;1.42;;;19.30;90.90;;;;;;2070764;28;20084;-68
2022/06/29 00:18:13;;;;;;;3.13;1.35;;;19.30;91.10;;;;;;2070164;28;20054;-68
2022/06/29 00:19:14;;;;;;;3.55;1.30;;;19.30;91.10;;;;;;2074096;28;20037;-68
2022/06/29 00:20:15;;;;;;;1.73;1.02;;;19.30;91.30;;;;;;2077857;28;20079;-68
2022/06/29 00:21:16;;;;;;;2.95;1.33;;;19.30;90.80;;;;;;2077048;28;20112;-68
2022/06/29 00:22:16;;;;;;;3.13;1.20;;;19.30;91.00;;;;;;2076226;28;20481;-68
2022/06/29 00:23:17;;;;;;;2.35;1.30;;;19.30;91.00;;;;;;2076145;28;20023;-67
2022/06/29 00:24:17;;;;;;;4.68;1.33;;;19.30;91.20;;;;;;2074621;28;20067;-67
2022/06/29 00:25:18;;;;;;;2.40;1.08;;;19.30;91.30;;;;;;2076397;28;20554;-68
2022/06/29 00:26:19;;;;;;;3.08;1.67;;;19.30;91.40;;;;;;2074587;28;20064;-67
2022/06/29 00:27:20;;;;;;;1.88;1.20;;;19.30;91.20;;;;;;2077180;28;20044;-67
2022/06/29 00:28:21;;;;;;;8.57;1.52;;;19.30;91.70;;;;;;2075711;28;20489;-67
2022/06/29 00:29:21;;;;;;;1.42;0.90;;;19.30;91.30;;;;;;2079153;28;20155;-67
2022/06/29 00:30:23;;;;;;;2.88;1.33;;;19.30;91.00;;;;;;2075369;28;20501;-67
2022/06/29 00:31:23;;;;;;;3.20;1.48;;;19.30;91.80;;;;;;2076944;28;20026;-67
2022/06/29 00:32:24;;;;;;;1.33;1.13;;;19.30;92.30;;;;;;2075245;28;20029;-67
2022/06/29 00:33:25;;;;;;;2.42;1.20;;;19.30;92.40;;;;;;2076634;28;20710;-67
2022/06/29 00:34:26;;;;;;;1.95;1.30;;;19.30;92.10;;;;;;2076623;28;20108;-67
2022/06/29 00:35:27;;;;;;;1.98;1.50;;;19.30;92.60;;;;;;2076622;28;20029;-68
2022/06/29 00:36:27;;;;;;;1.92;1.25;;;19.30;92.40;;;;;;2075334;28;20026;-68
2022/06/29 00:37:28;;;;;;;2.42;1.42;;;19.30;92.30;;;;;;2076043;28;20076;-67
2022/06/29 00:38:29;;;;;;;4.68;1.42;;;19.30;92.50;;;;;;2076222;28;20433;-67
2022/06/29 00:39:30;;;;;;;2.45;1.30;;;19.30;92.80;;;;;;2075738;28;20049;-67
2022/06/29 00:40:31;;;;;;;1.95;1.08;;;19.20;92.50;;;;;;2074452;28;20527;-67
2022/06/29 00:41:36;;;;;;;2.40;1.40;;;19.20;91.30;;;;;;2077567;28;20436;-67
2022/06/29 00:42:36;;;;;;;5.22;1.55;;;19.20;92.50;;;;;;2075712;28;20034;-67
2022/06/29 00:43:41;;;;;;;1.80;1.15;;;19.20;93.30;;;;;;2077666;28;20037;-67
2022/06/29 00:44:42;;;;;;;2.83;1.48;;;19.20;92.40;;;;;;2075863;28;20065;-67
2022/06/29 00:45:43;;;;;;;2.47;1.20;;;19.20;92.60;;;;;;2074359;28;20022;-67
2022/06/29 00:46:55;;;;;;;2.65;1.48;;;19.20;93.20;;;;;;2077723;28;20453;-68
2022/06/29 00:47:56;;;;;;;1.45;1.17;;;19.10;93.60;;;;;;2077381;28;20156;-68
2022/06/29 00:48:56;;;;;;;4.07;1.70;;;19.10;92.50;;;;;;2075059;28;20083;-68
2022/06/29 00:49:57;;;;;;;2.88;1.17;;;19.10;92.60;;;;;;2076565;28;20030;-68
2022/06/29 00:51:02;;;;;;;1.50;1.20;;;19.10;93.10;;;;;;2077434;28;20021;-68
2022/06/29 00:52:04;;;;;;;3.83;1.30;;;19.10;92.80;;;;;;2076847;28;20034;-68
2022/06/29 00:53:06;;;;;;;3.30;1.30;;;19.10;93.70;;;;;;2076352;28;20018;-68
2022/06/29 00:54:09;;;;;;;2.05;1.52;;;19.10;93.90;;;;;;2075126;28;20025;-68
2022/06/29 00:55:16;;;;;;;2.30;1.40;;;19.10;93.80;;;;;;2077174;28;20048;-68
2022/06/29 00:56:18;;;;;;;3.90;1.40;;;19.00;94.40;;;;;;2079222;28;20095;-68
2022/06/29 00:57:25;;;;;;;6.25;1.75;;;19.00;94.60;;;;;;2076012;28;20037;-68
2022/06/29 00:58:28;;;;;;;3.10;1.65;;;19.00;94.10;;;;;;2077101;28;20025;-68
2022/06/29 00:59:34;;;;;;;2.42;1.35;;;19.00;94.90;;;;;;2077762;28;20029;-68
2022/06/29 01:00:35;;;;;;;1.20;1.10;;;19.00;94.90;;;;;;2079216;28;20064;-68
2022/06/29 01:01:38;;;;;;;2.80;1.27;;;19.00;95.40;;;;;;2078381;28;20060;-68
2022/06/29 01:02:39;;;;;;;2.78;1.20;;;18.90;95.60;;;;;;2076981;28;20474;-68
2022/06/29 01:03:39;;;;;;;6.65;1.52;;;18.90;95.70;;;;;;2079111;28;20424;-68
2022/06/29 01:04:41;;;;;;;2.33;1.30;;;18.90;95.10;;;;;;2079259;28;20044;-68
2022/06/29 01:05:42;;;;;;;2.90;1.30;;;18.90;95.00;;;;;;2075092;28;20103;-68
2022/06/29 01:06:42;;;;;;;2.33;1.33;;;18.90;95.90;;;;;;2071126;28;20076;-68
2022/06/29 01:07:44;;;;;;;3.20;1.25;;;18.80;95.10;;;;;;2071214;28;20026;-68
2022/06/29 01:08:44;;;;;;;2.08;0.98;;;18.80;94.80;;;;;;2075598;28;20080;-68
2022/06/29 01:09:46;;;;;;;2.38;1.30;;;18.80;95.90;;;;;;2076435;28;20116;-68
2022/06/29 01:10:46;;;;;;;2.45;1.35;;;18.80;96.30;;;;;;2076158;28;20112;-68
2022/06/29 01:11:49;;;;;;;2.33;0.95;;;18.80;97.00;;;;;;2077544;28;20033;-68
2022/06/29 01:12:51;;;;;;;3.03;1.50;;;18.80;97.30;;;;;;2078126;28;20030;-68
2022/06/29 01:13:52;;;;;;;2.70;1.27;;;18.70;97.20;;;;;;2076475;28;20042;-68
2022/06/29 01:14:53;;;;;;;2.38;1.70;;;18.70;97.70;;;;;;2078138;28;20029;-68
2022/06/29 01:15:54;;;;;;;3.00;1.42;;;18.70;98.20;;;;;;2075783;28;20109;-68
2022/06/29 01:16:55;;;;;;;3.60;1.40;;;18.70;98.00;;;;;;2076540;28;20030;-68
2022/06/29 01:17:56;;;;;;;1.85;1.42;;;18.70;98.10;;;;;;2079950;28;20026;-68
2022/06/29 01:18:56;;;;;;;2.50;1.33;;;18.60;97.70;;;;;;2075115;28;20029;-68
2022/06/29 01:19:57;;;;;;;4.38;1.52;;;18.70;98.40;;;;;;2075946;28;20026;-68
2022/06/29 01:21:08;;;;;;;3.55;1.20;;;18.60;98.60;;;;;;2075705;28;20492;-68
2022/06/29 01:22:13;;;;;;;2.08;1.30;;;18.60;99.20;;;;;;2075990;28;20076;-68
2022/06/29 01:23:14;;;;;;;2.22;1.17;;;18.60;98.30;;;;;;2077500;28;20014;-68
2022/06/29 01:24:14;;;;;;;2.00;1.35;;;18.60;98.80;;;;;;2074735;28;20026;-68
2022/06/29 01:25:15;;;;;;;5.93;1.35;;;18.60;98.00;;;;;;2076490;28;20029;-68
2022/06/29 01:26:15;;;;;;;4.53;1.45;;;18.50;97.80;;;;;;2077992;28;20049;-68
2022/06/29 01:27:18;;;;;;;1.80;1.30;;;18.50;97.80;;;;;;2075268;28;20032;-68
2022/06/29 01:28:18;;;;;;;2.95;1.63;;;18.60;98.30;;;;;;2077131;28;20029;-68
2022/06/29 01:29:19;;;;;;;3.05;1.40;;;18.60;99.50;;;;;;2078510;28;20484;-68
2022/06/29 01:30:20;;;;;;;4.57;1.38;;;18.50;99.80;;;;;;2076343;28;20091;-68
2022/06/29 01:31:20;;;;;;;1.83;1.33;;;18.50;99.90;;;;;;2078837;28;20100;-68
2022/06/29 01:32:21;;;;;;;1.92;1.40;;;18.50;99.90;;;;;;2079197;28;20033;-68
2022/06/29 01:33:22;;;;;;;1.83;1.48;;;18.50;99.90;;;;;;2079251;28;20037;-68
2022/06/29 01:34:26;;;;;;;2.80;1.23;;;18.50;99.90;;;;;;2075141;28;20057;-68
2022/06/29 01:35:26;;;;;;;1.70;1.30;;;18.50;99.90;;;;;;2074500;28;20481;-68
2022/06/29 01:36:27;;;;;;;4.18;1.30;;;18.50;99.90;;;;;;2070901;28;20034;-68
2022/06/29 01:37:27;;;;;;;2.58;1.50;;;18.50;99.90;;;;;;2075699;28;20018;-68
2022/06/29 01:38:28;;;;;;;3.42;1.48;;;18.50;99.90;;;;;;2074575;28;20032;-68
2022/06/29 01:39:29;;;;;;;2.58;1.60;;;18.50;99.90;;;;;;2074203;28;20022;-68
2022/06/29 01:40:29;;;;;;;2.15;1.80;;;18.50;99.90;;;;;;2075645;28;20032;-68
2022/06/29 01:41:30;;;;;;;3.17;1.40;;;18.50;99.90;;;;;;2078441;28;20075;-68
2022/06/29 01:42:31;;;;;;;2.97;1.63;;;18.50;99.90;;;;;;2077509;28;20029;-68
2022/06/29 01:43:32;;;;;;;3.10;1.55;;;18.50;99.90;;;;;;2077982;28;20079;-68
2022/06/29 01:44:34;;;;;;;1.58;1.20;;;18.50;99.90;;;;;;2078620;28;20028;-68
2022/06/29 01:45:34;;;;;;;1.70;1.40;;;18.50;99.90;;;;;;2076711;28;20371;-68
2022/06/29 01:46:35;;;;;;;2.78;1.50;;;18.50;99.90;;;;;;2074843;28;20052;-68
2022/06/29 01:47:35;;;;;;;1.88;1.35;;;18.50;99.90;;;;;;2075404;28;20030;-68
2022/06/29 01:48:36;;;;;;;3.35;1.27;;;18.50;99.90;;;;;;2079001;28;20954;-68
2022/06/29 01:49:37;;;;;;;2.03;1.30;;;18.50;99.90;;;;;;2078860;28;20397;-68
2022/06/29 01:50:38;;;;;;;3.53;1.55;;;18.50;99.90;;;;;;2074335;28;20038;-68
2022/06/29 01:51:38;;;;;;;2.00;1.50;;;18.50;99.90;;;;;;2076738;28;20033;-68
2022/06/29 01:52:39;;;;;;;1.88;1.67;;;18.50;99.90;;;;;;2074683;28;20028;-68
2022/06/29 01:53:40;;;;;;;1.75;1.45;;;18.50;99.90;;;;;;2074753;28;20026;-68
2022/06/29 01:54:40;;;;;;;1.38;1.27;;;18.50;99.90;;;;;;2075267;28;20030;-68
2022/06/29 01:55:43;;;;;;;3.85;1.88;;;18.50;99.90;;;;;;2072397;28;20482;-68
2022/06/29 01:56:43;;;;;;;2.53;1.60;;;18.50;99.90;;;;;;2078597;28;20026;-68
2022/06/29 01:57:44;;;;;;;1.73;1.60;;;18.50;99.90;;;;;;2078608;28;20101;-68
2022/06/29 01:58:45;;;;;;;2.22;1.40;;;18.50;99.90;;;;;;2078217;28;20018;-68
2022/06/29 01:59:46;;;;;;;7.03;1.70;;;18.50;99.90;;;;;;2078560;28;20111;-68
2022/06/29 02:00:46;;;;;;;3.45;1.85;;;18.50;99.90;;;;;;2078445;28;20099;-68
2022/06/29 02:01:48;;;;;;;4.35;1.92;;;18.50;99.90;;;;;;2078580;28;20094;-68
2022/06/29 02:02:49;;;;;;;3.08;1.40;;;18.50;99.90;;;;;;2078191;28;20038;-68
2022/06/29 02:03:51;;;;;;;2.08;1.50;;;18.50;99.90;;;;;;2079463;28;20215;-68
2022/06/29 02:04:51;;;;;;;2.58;1.33;;;18.50;99.90;;;;;;2078064;28;20026;-68
2022/06/29 02:05:52;;;;;;;3.70;1.90;;;18.50;99.90;;;;;;2078090;28;20026;-68
2022/06/29 02:06:52;;;;;;;2.03;1.55;;;18.50;99.90;;;;;;2077486;28;20501;-68
2022/06/29 02:07:53;;;;;;;3.80;1.60;;;18.50;99.90;;;;;;2076694;28;20026;-68
2022/06/29 02:08:54;;;;;;;3.38;1.27;;;18.50;99.90;;;;;;2077552;28;20037;-68
2022/06/29 02:09:54;;;;;;;2.67;1.80;;;18.50;99.90;;;;;;2077921;28;20105;-68
2022/06/29 02:10:55;;;;;;;2.75;1.63;;;18.50;99.90;;;;;;2076087;28;20025;-68
2022/06/29 02:11:56;;;;;;;6.03;1.80;;;18.50;99.90;;;;;;2075490;28;20766;-68
2022/06/29 02:12:56;;;;;;;3.15;1.55;;;18.50;99.90;;;;;;2075791;28;20778;-68
2022/06/29 02:13:57;;;;;;;1.88;1.15;;;18.50;99.90;;;;;;2076779;28;20519;-68
2022/06/29 02:14:57;;;;;;;4.78;1.75;;;18.50;99.90;;;;;;2077545;28;20022;-68
2022/06/29 02:15:58;;;;;;;1.65;1.42;;;18.60;99.90;;;;;;2077327;28;20032;-68
2022/06/29 02:16:59;;;;;;;3.45;1.63;;;18.50;99.90;;;;;;2078899;28;20013;-68
2022/06/29 02:17:59;;;;;;;4.57;1.15;;;18.60;99.90;;;;;;2075707;28;20057;-68
2022/06/29 02:19:00;;;;;;;2.85;1.77;;;18.50;99.90;;;;;;2079555;28;21057;-68
2022/06/29 02:20:00;;;;;;;3.08;1.58;;;18.50;99.90;;;;;;2078595;28;20079;-68
2022/06/29 02:21:01;;;;;;;2.20;1.85;;;18.50;99.90;;;;;;2076864;28;20030;-68
2022/06/29 02:22:02;;;;;;;2.33;1.58;;;18.50;99.90;;;;;;2076677;28;20022;-68
2022/06/29 02:23:03;;;;;;;1.77;1.25;;;18.50;99.90;;;;;;2077466;28;20796;-68
2022/06/29 02:24:03;;;;;;;3.35;1.70;;;18.50;99.90;;;;;;2078029;28;20438;-68
2022/06/29 02:25:05;;;;;;;1.95;1.30;;;18.50;99.90;;;;;;2074771;28;20524;-68
2022/06/29 02:26:06;;;;;;;3.70;1.25;;;18.50;99.90;;;;;;2075369;28;20766;-68
2022/06/29 02:27:07;;;;;;;2.90;1.52;;;18.50;99.90;;;;;;2075929;28;20091;-68
2022/06/29 02:28:07;;;;;;;2.95;1.85;;;18.50;99.90;;;;;;2076738;28;20017;-68
2022/06/29 02:29:08;;;;;;;2.47;1.65;;;18.50;99.90;;;;;;2077748;28;20029;-68
2022/06/29 02:30:10;;;;;;;2.72;1.73;;;18.50;99.90;;;;;;2076558;28;20073;-68
2022/06/29 02:35:08;;;;;;;2.35;1.40;;;18.50;99.90;;;;;;2075607;28;20021;-68
2022/06/29 02:36:08;;;;;;;3.58;1.60;;;18.50;99.90;;;;;;2077577;28;20472;-68
2022/06/29 02:37:10;;;;;;;2.35;1.33;;;18.50;99.90;;;;;;2077172;28;20076;-68
2022/06/29 02:38:10;;;;;;;2.08;1.52;;;18.50;99.90;;;;;;2078155;28;20018;-68
2022/06/29 02:39:11;;;;;;;2.25;1.55;;;18.50;99.90;;;;;;2077266;28;20060;-68
2022/06/29 02:40:12;;;;;;;2.22;1.40;;;18.50;99.90;;;;;;2075373;28;20076;-68
2022/06/29 02:41:13;;;;;;;2.47;1.70;;;18.50;99.90;;;;;;2073744;28;20026;-68
2022/06/29 02:42:14;;;;;;;2.38;1.45;;;18.50;99.90;;;;;;2075268;28;20033;-68
2022/06/29 02:43:15;;;;;;;1.83;1.52;;;18.50;99.90;;;;;;2076060;28;20028;-68
2022/06/29 02:44:15;;;;;;;5.07;1.67;;;18.50;99.90;;;;;;2076582;28;20054;-68
2022/06/29 02:45:16;;;;;;;2.50;1.50;;;18.50;99.90;;;;;;2074797;28;20029;-68
2022/06/29 02:46:17;;;;;;;3.42;1.75;;;18.50;99.90;;;;;;2076488;28;20040;-68
2022/06/29 02:47:18;;;;;;;1.30;1.20;;;18.50;99.90;;;;;;2075399;28;20029;-68
2022/06/29 02:48:19;;;;;;;2.40;1.50;;;18.50;99.90;;;;;;2067382;28;20362;-68
2022/06/29 02:49:19;;;;;;;3.55;1.50;;;18.50;99.90;;;;;;2068069;28;20056;-68
2022/06/29 02:50:20;;;;;;;2.58;1.75;;;18.50;99.90;;;;;;2078591;28;20025;-68
2022/06/29 02:51:20;;;;;;;2.85;1.60;;;18.50;99.90;;;;;;2078013;28;20442;-68
2022/06/29 02:52:21;;;;;;;5.43;1.73;;;18.50;99.90;;;;;;2077074;28;20031;-68
2022/06/29 02:53:21;;;;;;;3.28;2.10;;;18.50;99.90;;;;;;2075472;28;20022;-68
2022/06/29 02:54:22;;;;;;;4.93;1.83;;;18.50;99.90;;;;;;2077166;28;20132;-68
2022/06/29 02:55:23;;;;;;;2.58;1.25;;;18.40;99.90;;;;;;2076304;28;20540;-68
2022/06/29 02:56:23;;;;;;;2.20;1.63;;;18.50;99.90;;;;;;2077394;28;20033;-68
2022/06/29 02:57:24;;;;;;;4.88;1.67;;;18.50;99.90;;;;;;2076577;28;20061;-68
2022/06/29 02:58:25;;;;;;;1.95;1.60;;;18.40;99.90;;;;;;2077318;28;20033;-68
2022/06/29 02:59:25;;;;;;;2.55;1.38;;;18.40;99.90;;;;;;2078254;28;20048;-68
2022/06/29 03:00:26;;;;;;;6.28;1.90;;;18.50;99.90;;;;;;2076117;28;20060;-68
2022/06/29 03:01:27;;;;;;;2.38;1.60;;;18.40;99.90;;;;;;2076831;28;20030;-68
2022/06/29 03:02:27;;;;;;;3.60;1.60;;;18.50;99.90;;;;;;2076659;28;20037;-68
2022/06/29 03:03:28;;;;;;;2.30;1.25;;;18.40;99.90;;;;;;2075957;28;20026;-68
2022/06/29 03:04:29;;;;;;;3.95;1.50;;;18.40;99.90;;;;;;2078263;28;20049;-68
2022/06/29 03:05:30;;;;;;;2.85;1.52;;;18.50;99.90;;;;;;2075277;28;20030;-68
2022/06/29 03:06:30;;;;;;;3.45;1.73;;;18.50;99.90;;;;;;2076127;28;20401;-68
2022/06/29 03:07:31;;;;;;;3.17;1.30;;;18.40;99.90;;;;;;2077253;28;20045;-68
2022/06/29 03:08:32;;;;;;;2.05;1.50;;;18.50;99.90;;;;;;2078793;28;20053;-68
2022/06/29 03:09:33;;;;;;;3.10;1.67;;;18.40;99.90;;;;;;2077548;28;20102;-68
2022/06/29 03:10:33;;;;;;;1.83;1.67;;;18.40;99.90;;;;;;2075242;28;20389;-68
2022/06/29 03:11:34;;;;;;;3.38;1.70;;;18.40;99.90;;;;;;2074392;28;20025;-68
2022/06/29 03:12:35;;;;;;;3.95;1.25;;;18.40;99.90;;;;;;2077865;28;20731;-68
2022/06/29 03:13:35;;;;;;;3.08;1.65;;;18.50;99.90;;;;;;2074621;28;20564;-68
2022/06/29 03:14:36;;;;;;;3.97;1.58;;;18.50;99.90;;;;;;2073900;28;20120;-68
2022/06/29 03:15:37;;;;;;;5.80;1.75;;;18.40;99.90;;;;;;2075407;28;20092;-68
2022/06/29 03:16:37;;;;;;;1.80;1.67;;;18.40;99.90;;;;;;2074290;28;20469;-68
2022/06/29 03:17:38;;;;;;;4.32;1.70;;;18.40;99.90;;;;;;2078142;28;20025;-68
2022/06/29 03:18:39;;;;;;;2.33;1.55;;;18.50;99.90;;;;;;2075934;28;20029;-68
2022/06/29 03:19:39;;;;;;;2.53;1.40;;;18.40;99.90;;;;;;2075611;28;20057;-68
2022/06/29 03:20:40;;;;;;;4.65;1.80;;;18.50;99.90;;;;;;2078180;28;20030;-68
2022/06/29 03:21:40;;;;;;;3.10;1.80;;;18.50;99.90;;;;;;2074762;28;20025;-68
2022/06/29 03:22:43;;;;;;;3.10;1.90;;;18.50;99.90;;;;;;2076104;28;20021;-68
2022/06/29 03:23:44;;;;;;;4.22;2.00;;;18.50;99.90;;;;;;2078827;28;20107;-68
2022/06/29 03:24:45;;;;;;;5.10;1.88;;;18.40;99.90;;;;;;2075744;28;20104;-68
2022/06/29 03:25:46;;;;;;;3.97;1.65;;;18.40;99.90;;;;;;2077032;28;20025;-68
2022/06/29 03:26:46;;;;;;;2.88;1.58;;;18.40;99.90;;;;;;2074267;28;20033;-68
2022/06/29 03:27:47;;;;;;;5.03;1.50;;;18.40;99.90;;;;;;2073885;28;20021;-68
2022/06/29 03:28:52;;;;;;;3.38;1.98;;;18.40;99.90;;;;;;2075294;28;20474;-68
2022/06/29 03:29:53;;;;;;;3.58;1.60;;;18.40;99.90;;;;;;2076080;28;20397;-68
2022/06/29 03:30:54;;;;;;;3.40;1.70;;;18.50;99.90;;;;;;2076359;28;20147;-68
2022/06/29 03:31:55;;;;;;;5.22;1.75;;;18.40;99.90;;;;;;2074741;28;20041;-68
2022/06/29 03:32:55;;;;;;;4.60;1.90;;;18.40;99.90;;;;;;2075918;28;20034;-68
2022/06/29 03:33:56;;;;;;;2.78;1.70;;;18.40;99.90;;;;;;2076460;28;20557;-68
2022/06/29 03:34:57;;;;;;;2.47;1.65;;;18.40;99.90;;;;;;2075584;28;20025;-68
2022/06/29 03:35:58;;;;;;;2.45;1.58;;;18.40;99.90;;;;;;2078013;28;20080;-68
2022/06/29 03:36:59;;;;;;;2.10;1.77;;;18.40;99.90;;;;;;2073933;28;20029;-68
2022/06/29 03:38:00;;;;;;;5.00;1.80;;;18.40;99.90;;;;;;2072772;28;20478;-68
2022/06/29 03:39:02;;;;;;;3.28;2.20;;;18.40;99.90;;;;;;2076101;28;20132;-68
2022/06/29 03:40:03;;;;;;;5.68;2.00;;;18.40;99.90;;;;;;2077781;28;20030;-68
2022/06/29 03:41:04;;;;;;;1.98;1.58;;;18.40;99.90;;;;;;2074135;28;20026;-68
2022/06/29 03:42:05;;;;;;;1.70;1.45;;;18.40;99.90;;;;;;2078245;28;20377;-68
2022/06/29 03:43:05;;;;;;;2.22;1.95;;;18.40;99.90;;;;;;2073482;28;20047;-68
2022/06/29 03:44:06;;;;;;;1.60;1.50;;;18.40;99.90;;;;;;2074585;28;20026;-68
2022/06/29 03:45:07;;;;;;;2.42;1.45;;;18.40;99.90;;;;;;2076861;28;20105;-68
2022/06/29 03:46:08;;;;;;;3.17;1.70;;;18.40;99.90;;;;;;2074749;28;20022;-68
2022/06/29 03:47:08;;;;;;;2.35;1.83;;;18.40;99.90;;;;;;2075345;28;20478;-68
2022/06/29 03:48:09;;;;;;;2.70;1.85;;;18.30;99.90;;;;;;2076851;28;20036;-68
2022/06/29 03:49:10;;;;;;;2.15;1.67;;;18.40;99.90;;;;;;2075085;28;20618;-68
2022/06/29 03:50:10;;;;;;;3.90;1.80;;;18.30;99.90;;;;;;2077308;28;20075;-68
2022/06/29 03:51:11;;;;;;;2.40;2.13;;;18.30;99.90;;;;;;2077269;28;20021;-68
2022/06/29 03:52:11;;;;;;;2.17;1.60;;;18.30;99.90;;;;;;2076199;28;20030;-68
2022/06/29 03:53:12;;;;;;;3.47;1.73;;;18.30;99.90;;;;;;2075875;28;20070;-68
2022/06/29 03:54:12;;;;;;;3.08;1.80;;;18.30;99.90;;;;;;2075834;28;20084;-68
2022/06/29 03:55:13;;;;;;;3.13;1.88;;;18.30;99.90;;;;;;2076916;28;20393;-68
2022/06/29 03:56:14;;;;;;;3.05;1.98;;;18.30;99.90;;;;;;2077577;28;20063;-68
2022/06/29 03:57:14;;;;;;;3.60;2.50;;;18.30;99.90;;;;;;2076401;28;20026;-68
2022/06/29 03:58:15;;;;;;;3.05;2.03;;;18.20;99.90;;;;;;2078536;28;20678;-68
2022/06/29 03:59:15;;;;;;;3.55;2.30;;;18.20;99.90;;;;;;2075801;28;20110;-68
2022/06/29 04:00:16;;;;;;;4.07;1.83;;;18.20;99.90;;;;;;2078335;28;20080;-68
2022/06/29 04:01:17;;;;;;;2.85;1.95;;;18.20;99.90;;;;;;2075834;28;20116;-68
2022/06/29 04:02:18;;;;;;;3.08;2.15;;;18.20;99.90;;;;;;2078154;28;20026;-68
2022/06/29 04:03:18;;;;;;;4.10;2.13;;;18.20;99.90;;;;;;2078174;28;20056;-68
2022/06/29 04:04:19;;;;;;;4.70;2.13;;;18.20;99.90;;;;;;2074990;28;20068;-68
2022/06/29 04:05:19;;;;;;;2.20;2.00;;;18.20;99.90;;;;;;2076690;28;20370;-68
2022/06/29 04:06:20;;;;;;;2.30;1.90;;;18.20;99.90;;;;;;2074756;28;20026;-68
2022/06/29 04:07:21;;;;;;;3.40;2.00;;;18.20;99.90;;;;;;2077128;28;20021;-68
2022/06/29 04:08:21;;;;;;;2.33;1.85;;;18.20;99.90;;;;;;2073116;28;20050;-68
2022/06/29 04:09:22;;;;;;;2.95;1.88;;;18.20;99.90;;;;;;2067351;28;20486;-68
2022/06/29 04:10:23;;;;;;;6.28;3.72;;;18.20;99.90;;;;;;2067255;28;21099;-68
2022/06/29 04:12:43;;;;;;;3.95;1.80;;;18.40;99.90;;;;;;2078217;28;20500;-68
2022/06/29 04:13:43;;;;;;;3.97;2.22;;;18.60;99.90;;;;;;2077298;28;20021;-68
2022/06/29 04:14:44;;;;;;;8.52;2.58;;;18.70;99.90;;;;;;2072385;28;20021;-68
2022/06/29 04:15:44;;;;;;;4.95;2.13;;;18.80;99.90;;;;;;2077656;28;20095;-68
2022/06/29 04:16:46;;;;;;;3.70;1.92;;;18.90;99.90;;;;;;2076161;28;20021;-68
2022/06/29 04:17:46;;;;;;;2.58;2.15;;;19.00;99.90;;;;;;2076583;28;20021;-68
2022/06/29 04:18:47;;;;;;;2.75;1.92;;;19.00;99.90;;;;;;2076017;28;20025;-68
2022/06/29 04:19:48;;;;;;;6.28;2.78;;;19.00;99.90;;;;;;2075986;28;20022;-68
2022/06/29 04:21:07;;;;;;;3.05;1.92;;;18.90;99.90;;;;;;2076332;28;20117;-68
2022/06/29 04:22:07;;;;;;;1.77;1.45;;;18.90;99.90;;;;;;2077343;28;20033;-68
2022/06/29 04:23:08;;;;;;;3.92;2.55;;;18.90;99.90;;;;;;2074830;28;20488;-68
2022/06/29 04:24:09;;;;;;;4.63;1.98;;;18.90;99.90;;;;;;2077532;28;20029;-68
2022/06/29 04:25:09;;;;;;;3.28;1.80;;;18.80;99.90;;;;;;2074503;28;20017;-68
2022/06/29 04:26:10;;;;;;;5.55;2.08;;;18.80;99.90;;;;;;2077062;28;20102;-68
2022/06/29 04:27:11;;;;;;;4.80;2.47;;;18.80;99.90;;;;;;2076576;28;20429;-68
2022/06/29 04:28:12;;;;;;;4.22;2.30;;;18.80;99.90;;;;;;2066897;28;20022;-68
2022/06/29 04:29:13;;;;;;;3.05;1.80;;;18.70;99.90;;;;;;2064899;28;20569;-68
2022/06/29 04:30:13;;;;;;;3.60;2.00;;;18.80;99.90;;;;;;2077427;28;20082;-68
2022/06/29 04:31:14;;;;;;;4.65;2.20;;;18.70;99.90;;;;;;2077675;28;20097;-68
2022/06/29 04:32:15;;;;;;;6.13;2.65;;;18.70;99.90;;;;;;2077436;28;20028;-68
2022/06/29 04:33:15;;;;;;;3.65;2.08;;;18.70;99.90;;;;;;2075579;28;20038;-68
2022/06/29 04:34:16;;;;;;;2.78;2.10;;;18.70;99.90;;;;;;2077120;28;20029;-68
2022/06/29 04:35:17;;;;;;;3.03;2.28;;;18.70;99.90;;;;;;2078488;28;20474;-68
2022/06/29 04:36:18;;;;;;;5.38;2.17;;;18.70;99.90;;;;;;2079806;28;20036;-68
2022/06/29 04:37:18;;;;;;;3.33;1.90;;;18.70;99.90;;;;;;2078638;28;20030;-68
2022/06/29 04:38:19;;;;;;;2.33;1.75;;;18.70;99.90;;;;;;2079335;28;20527;-68
2022/06/29 04:39:19;;;;;;;8.40;2.13;;;18.70;99.90;;;;;;2076672;28;20426;-68
2022/06/29 04:40:20;;;;;;;3.22;2.00;;;18.70;99.90;;;;;;2074773;28;20030;-68
2022/06/29 04:41:22;;;;;;;2.88;1.98;;;18.70;99.90;;;;;;2074515;28;20038;-68
2022/06/29 04:42:22;;;;;;;3.42;2.35;;;18.70;99.90;;;;;;2076674;28;20060;-68
2022/06/29 04:43:24;;;;;;;2.22;1.90;;;18.70;99.90;;;;;;2075842;28;20017;-68
2022/06/29 04:44:25;;;;;;;4.93;2.20;;;18.70;99.90;;;;;;2077784;28;20045;-68
2022/06/29 04:46:45;;;;;;;4.25;2.10;;;18.70;99.90;;;;;;2075823;28;20057;-68
2022/06/29 04:47:48;;;;;;;5.25;2.00;;;18.70;99.90;;;;;;2077329;28;20038;-68
2022/06/29 04:48:56;;;;;;;5.13;2.80;;;18.80;99.90;;;;;;2075616;28;20524;-68
2022/06/29 04:49:56;;;;;;;5.22;1.90;;;18.70;99.90;;;;;;2075692;28;20485;-68
2022/06/29 04:50:57;;;;;;;5.50;2.20;;;18.80;99.90;;;;;;2076996;28;20446;-68
2022/06/29 04:51:58;;;;;;;4.38;2.08;;;18.80;99.90;;;;;;2075470;28;20436;-68
2022/06/29 04:52:58;;;;;;;4.30;2.50;;;18.80;99.90;;;;;;2075239;28;20030;-68
2022/06/29 04:54:00;;;;;;;2.13;1.92;;;18.90;99.90;;;;;;2073462;28;20022;-68
2022/06/29 04:55:00;;;;;;;3.33;1.95;;;18.90;99.90;;;;;;2075395;28;20021;-68
2022/06/29 04:56:01;;;;;;;2.22;1.90;;;18.90;99.90;;;;;;2074881;28;20022;-68
2022/06/29 04:57:02;;;;;;;3.63;2.15;;;18.90;99.90;;;;;;2078767;28;20550;-68
2022/06/29 04:58:02;;;;;;;2.63;1.90;;;18.90;99.90;;;;;;2076580;28;20528;-68
2022/06/29 04:59:03;;;;;;;7.85;2.28;;;18.90;99.90;;;;;;2074559;28;20043;-68
2022/06/29 05:00:04;;;;;;;4.57;2.13;;;19.00;99.90;;;;;;2082996;28;20108;-68
2022/06/29 05:01:05;;;;;;;5.00;2.08;;;19.00;99.90;;;;;;2081389;28;20019;-68
2022/06/29 05:02:06;;;;;;;3.42;2.03;;;19.10;99.90;;;;;;2077042;28;20044;-68
2022/06/29 05:03:06;;;;;;;2.35;1.95;;;19.10;99.90;;;;;;2078600;28;20022;-68
2022/06/29 05:04:07;;;;;;;3.22;2.13;;;19.10;99.90;;;;;;2073807;28;20036;-68
2022/06/29 05:05:08;;;;;;;3.15;2.35;;;19.20;99.90;;;;;;2074457;28;20014;-68
2022/06/29 05:06:09;;;;;;;2.67;2.10;;;19.20;99.90;;;;;;2076801;28;20493;-68
2022/06/29 05:07:09;;;;;;;3.20;1.92;;;19.20;99.90;;;;;;2074091;28;20407;-68
2022/06/29 05:08:10;;;;;;;2.42;2.22;;;19.30;99.90;;;;;;2074098;28;20512;-68
2022/06/29 05:09:10;;;;;;;5.03;2.00;;;19.30;99.90;;;;;;2076715;28;20022;-68
2022/06/29 05:10:11;;;;;;;5.70;2.38;;;19.30;99.90;;;;;;2075099;28;20489;-68
2022/06/29 05:11:14;;;;;;;4.32;2.40;;;19.40;99.90;;;;;;2074268;28;20113;-68
2022/06/29 05:12:14;;;;;;;2.42;1.85;;;19.40;99.90;;;;;;2075417;28;20034;-68
2022/06/29 05:13:15;;;;;;;4.25;2.03;;;19.40;99.90;;;;;;2074546;28;20022;-68
2022/06/29 05:14:16;;;;;;;2.90;1.92;;;19.40;99.90;;;;;;2076485;28;20045;-68
2022/06/29 05:15:16;;;;;;;3.88;2.33;;;19.50;99.90;;;;;;2076396;28;20112;-68
2022/06/29 05:16:19;;;;;;;2.30;2.10;;;19.50;99.90;;;;;;2077134;28;20025;-68
2022/06/29 05:17:20;;;;;;;4.22;2.08;;;19.50;99.90;;;;;;2077487;28;20117;-68
2022/06/29 05:18:21;;;;;;;2.63;1.70;;;19.50;99.90;;;;;;2077531;28;20033;-68
2022/06/29 05:19:21;;;;;;;6.43;2.30;;;19.60;99.90;;;;;;2074651;28;20042;-68
2022/06/29 05:20:22;;;;;;;5.20;2.45;;;19.60;99.90;;;;;;2078250;28;20030;-68
2022/06/29 05:21:22;;;;;;;3.42;2.47;;;19.70;99.90;;;;;;2073928;28;20048;-68
2022/06/29 05:22:23;;;;;;;3.50;2.30;;;19.70;99.90;;;;;;2077259;28;20028;-68
2022/06/29 05:23:25;;;;;;;5.57;2.30;;;19.80;99.90;;;;;;2073726;28;20037;-68
2022/06/29 05:24:26;;;;;;;4.53;2.35;;;19.80;99.90;;;;;;2075447;28;20021;-68
2022/06/29 05:25:26;;;;;;;3.17;2.25;;;19.90;99.90;;;;;;2078126;28;20784;-68